createdAt,value
2022-08-25T00:00:18.591Z,77.40
2022-08-25T00:02:51.620Z,77.90
2022-08-25T00:05:27.652Z,77.70
2022-08-25T00:07:57.313Z,77.50
2022-08-25T00:10:26.569Z,77.50
2022-08-25T00:12:54.334Z,77.70
2022-08-25T00:15:23.506Z,77.80
2022-08-25T00:17:51.448Z,77.80
2022-08-25T00:20:19.699Z,77.80
2022-08-25T00:22:48.810Z,78.10
2022-08-25T00:25:17.002Z,79.30
2022-08-25T00:27:47.449Z,79.00
2022-08-25T00:30:16.541Z,78.90
2022-08-25T00:32:52.515Z,78.70
2022-08-25T00:35:25.988Z,78.20
2022-08-25T00:37:54.246Z,78.20
2022-08-25T00:40:26.915Z,78.40
2022-08-25T00:42:56.202Z,78.70
2022-08-25T00:45:24.310Z,78.80
2022-08-25T00:47:52.051Z,79.10
2022-08-25T00:50:22.773Z,79.20
2022-08-25T00:52:57.522Z,79.30
2022-08-25T00:55:29.651Z,79.50
2022-08-25T00:58:03.840Z,79.40
2022-08-25T01:00:39.240Z,79.70
2022-08-25T01:03:07.875Z,79.80
2022-08-25T01:05:36.410Z,79.80
2022-08-25T01:08:06.990Z,79.80
2022-08-25T01:10:36.186Z,80.00
2022-08-25T01:13:14.599Z,80.20
2022-08-25T01:15:45.288Z,80.20
2022-08-25T01:18:13.146Z,80.20
2022-08-25T01:20:41.074Z,80.20
2022-08-25T01:23:10.665Z,80.10
2022-08-25T01:25:49.759Z,79.90
2022-08-25T01:28:18.233Z,79.80
2022-08-25T01:30:46.151Z,79.80
2022-08-25T01:33:17.114Z,79.70
2022-08-25T01:35:45.353Z,80.00
2022-08-25T01:38:15.034Z,79.90
2022-08-25T01:40:43.667Z,80.10
2022-08-25T01:43:22.674Z,80.30
2022-08-25T01:45:50.553Z,80.40
2022-08-25T01:48:20.458Z,80.50
2022-08-25T01:50:48.236Z,80.60
2022-08-25T01:53:24.051Z,80.70
2022-08-25T01:55:53.019Z,81.00
2022-08-25T01:58:23.506Z,81.20
2022-08-25T02:00:54.203Z,81.20
2022-08-25T02:03:22.103Z,80.80
2022-08-25T02:05:50.063Z,80.70
2022-08-25T02:08:19.562Z,81.00
2022-08-25T02:10:48.091Z,80.80
2022-08-25T02:13:16.601Z,80.80
2022-08-25T02:15:46.911Z,81.20
2022-08-25T02:18:15.270Z,81.10
2022-08-25T02:20:42.970Z,81.30
2022-08-25T02:23:11.586Z,81.60
2022-08-25T02:25:42.175Z,82.10
2022-08-25T02:28:10.779Z,82.00
2022-08-25T02:30:40.096Z,82.10
2022-08-25T02:33:08.712Z,82.10
2022-08-25T02:35:37.254Z,82.80
2022-08-25T02:38:06.101Z,82.80
2022-08-25T02:40:34.585Z,83.10
2022-08-25T02:43:03.967Z,83.30
2022-08-25T02:45:31.754Z,83.00
2022-08-25T02:47:59.537Z,82.90
2022-08-25T02:50:27.428Z,82.80
2022-08-25T02:52:55.140Z,83.00
2022-08-25T02:55:23.712Z,83.20
2022-08-25T02:57:51.526Z,83.20
2022-08-25T03:00:21.046Z,83.50
2022-08-25T03:02:51.012Z,83.80
2022-08-25T03:05:18.876Z,83.80
2022-08-25T03:07:46.644Z,84.00
2022-08-25T03:10:19.562Z,84.10
2022-08-25T03:12:47.798Z,84.10
2022-08-25T03:15:17.996Z,84.10
2022-08-25T03:17:49.251Z,84.30
2022-08-25T03:20:19.225Z,84.40
2022-08-25T03:22:47.041Z,84.20
2022-08-25T03:25:28.724Z,84.30
2022-08-25T03:27:56.581Z,84.40
2022-08-25T03:30:24.354Z,84.50
2022-08-25T03:32:53.494Z,84.60
2022-08-25T03:35:21.437Z,84.50
2022-08-25T03:37:49.151Z,84.60
2022-08-25T03:40:17.866Z,84.50
2022-08-25T03:42:46.726Z,84.70
2022-08-25T03:45:16.410Z,84.60
2022-08-25T03:47:47.678Z,84.40
2022-08-25T03:50:18.829Z,84.30
2022-08-25T03:52:51.094Z,84.40
2022-08-25T03:55:19.224Z,84.20
2022-08-25T03:57:46.948Z,84.50
2022-08-25T04:00:17.785Z,84.50
2022-08-25T04:02:47.457Z,84.80
2022-08-25T04:05:16.552Z,85.10
2022-08-25T04:07:44.443Z,84.90
2022-08-25T04:10:12.315Z,84.80
2022-08-25T04:12:40.514Z,84.80
2022-08-25T04:15:09.973Z,84.60
2022-08-25T04:17:39.578Z,84.60
2022-08-25T04:20:09.335Z,84.40
2022-08-25T04:22:38.980Z,84.60
2022-08-25T04:25:11.255Z,84.60
2022-08-25T04:27:39.053Z,84.40
2022-08-25T04:30:07.670Z,84.60
2022-08-25T04:32:36.601Z,84.50
2022-08-25T04:35:05.262Z,84.80
2022-08-25T04:37:33.747Z,85.00
2022-08-25T04:40:03.704Z,85.20
2022-08-25T04:42:31.787Z,85.30
2022-08-25T04:45:00.145Z,85.20
2022-08-25T04:47:28.177Z,85.10
2022-08-25T04:49:56.900Z,85.20
2022-08-25T04:52:24.670Z,85.20
2022-08-25T04:54:52.600Z,85.20
2022-08-25T04:57:21.646Z,85.10
2022-08-25T04:59:49.507Z,85.20
2022-08-25T05:02:17.299Z,85.10
2022-08-25T05:04:45.042Z,84.80
2022-08-25T05:07:12.765Z,85.30
2022-08-25T05:09:40.733Z,85.30
2022-08-25T05:12:08.918Z,85.80
2022-08-25T05:14:40.379Z,85.60
2022-08-25T05:17:08.709Z,85.80
2022-08-25T05:19:37.080Z,86.10
2022-08-25T05:22:05.026Z,86.40
2022-08-25T05:24:32.821Z,86.20
2022-08-25T05:27:00.582Z,86.00
2022-08-25T05:29:28.418Z,85.90
2022-08-25T05:31:57.521Z,85.90
2022-08-25T05:34:25.621Z,86.00
2022-08-25T05:36:54.399Z,85.70
2022-08-25T05:39:22.446Z,85.60
2022-08-25T05:41:51.637Z,85.60
2022-08-25T05:44:21.395Z,85.50
2022-08-25T05:46:50.711Z,84.90
2022-08-25T05:49:20.406Z,85.20
2022-08-25T05:51:48.696Z,84.30
2022-08-25T05:54:19.970Z,84.10
2022-08-25T05:56:48.907Z,83.30
2022-08-25T05:59:16.726Z,83.30
2022-08-25T06:01:58.450Z,82.40
2022-08-25T06:04:27.896Z,81.80
2022-08-25T06:06:55.776Z,81.80
2022-08-25T06:09:24.133Z,81.30
2022-08-25T06:11:54.933Z,80.40
2022-08-25T06:14:23.675Z,79.80
2022-08-25T06:16:53.364Z,75.60
2022-08-25T06:19:23.016Z,73.60
2022-08-25T06:21:54.712Z,70.10
2022-08-25T06:24:22.442Z,66.20
2022-08-25T06:26:50.727Z,63.20
2022-08-25T06:29:19.265Z,60.90
2022-08-25T06:31:47.283Z,57.00
2022-08-25T06:34:14.995Z,55.40
2022-08-25T06:36:42.918Z,55.60
2022-08-25T06:39:17.784Z,56.10
2022-08-25T06:41:45.521Z,54.50
2022-08-25T06:44:13.863Z,52.70
2022-08-25T06:46:41.595Z,51.50
2022-08-25T06:49:09.317Z,50.10
2022-08-25T06:51:37.251Z,48.30
2022-08-25T06:54:06.410Z,48.10
2022-08-25T06:56:36.764Z,46.90
2022-08-25T06:59:06.026Z,47.40
2022-08-25T07:01:34.894Z,46.30
2022-08-25T07:04:07.644Z,46.50
2022-08-25T07:06:37.980Z,45.30
2022-08-25T07:09:08.090Z,44.90
2022-08-25T07:11:37.134Z,44.60
2022-08-25T07:14:07.150Z,43.90
2022-08-25T07:16:36.192Z,43.20
2022-08-25T07:19:05.843Z,42.80
2022-08-25T07:21:38.206Z,42.80
2022-08-25T07:24:07.671Z,42.70
2022-08-25T07:26:38.817Z,42.60
2022-08-25T07:29:09.978Z,42.30
2022-08-25T07:31:38.267Z,41.80
2022-08-25T07:34:20.090Z,41.70
2022-08-25T07:36:48.021Z,41.30
2022-08-25T07:39:17.417Z,41.50
2022-08-25T07:41:54.897Z,40.60
2022-08-25T07:44:23.548Z,40.20
2022-08-25T07:46:52.030Z,40.30
2022-08-25T07:49:23.746Z,39.90
2022-08-25T07:52:04.463Z,39.50
2022-08-25T07:54:35.232Z,39.20
2022-08-25T07:57:05.380Z,38.90
2022-08-25T07:59:39.283Z,38.50
2022-08-25T08:02:17.812Z,38.60
2022-08-25T08:04:48.310Z,38.10
2022-08-25T08:07:17.890Z,38.00
2022-08-25T08:09:45.842Z,37.80
2022-08-25T08:12:15.254Z,37.50
2022-08-25T08:14:45.067Z,36.90
2022-08-25T08:17:14.153Z,37.00
2022-08-25T08:19:45.260Z,37.20
2022-08-25T08:22:15.457Z,36.70
2022-08-25T08:24:54.094Z,35.80
2022-08-25T08:27:25.391Z,35.90
2022-08-25T08:29:53.557Z,36.10
2022-08-25T08:32:25.268Z,35.60
2022-08-25T08:34:59.340Z,35.10
2022-08-25T08:37:27.946Z,35.10
2022-08-25T08:39:56.071Z,35.80
2022-08-25T08:42:39.571Z,36.50
2022-08-25T08:45:22.045Z,35.50
2022-08-25T08:48:03.690Z,35.70
2022-08-25T08:50:40.406Z,35.50
2022-08-25T08:53:15.037Z,36.20
2022-08-25T08:55:51.881Z,34.90
2022-08-25T08:58:26.422Z,34.70
2022-08-25T09:00:59.026Z,35.70
2022-08-25T09:03:36.661Z,36.90
2022-08-25T09:06:12.418Z,36.20
2022-08-25T09:08:44.733Z,35.10
2022-08-25T09:11:19.899Z,37.10
2022-08-25T09:14:07.507Z,37.00
2022-08-25T09:16:57.073Z,38.30
2022-08-25T09:19:41.868Z,37.60
2022-08-25T09:22:33.400Z,37.20
2022-08-25T09:25:12.038Z,36.80
2022-08-25T09:27:46.576Z,35.50
2022-08-25T09:30:17.791Z,35.50
2022-08-25T09:32:52.623Z,35.60
2022-08-25T09:35:26.232Z,34.00
2022-08-25T09:37:57.615Z,33.80
2022-08-25T09:40:27.334Z,35.00
2022-08-25T09:42:58.687Z,35.30
2022-08-25T09:45:40.467Z,35.80
2022-08-25T09:48:31.102Z,36.20
2022-08-25T09:51:02.846Z,37.20
2022-08-25T09:53:33.938Z,36.10
2022-08-25T09:56:06.664Z,35.70
2022-08-25T09:58:34.743Z,35.10
2022-08-25T10:01:14.191Z,34.30
2022-08-25T10:03:58.322Z,34.20
2022-08-25T10:06:28.466Z,34.40
2022-08-25T10:09:01.785Z,34.30
2022-08-25T10:11:35.475Z,34.60
2022-08-25T10:14:05.893Z,35.50
2022-08-25T10:16:36.152Z,34.40
2022-08-25T10:19:08.587Z,34.20
2022-08-25T10:21:38.106Z,33.50
2022-08-25T10:24:07.438Z,31.90
2022-08-25T10:26:47.527Z,33.00
2022-08-25T10:29:33.274Z,33.20
2022-08-25T10:32:14.445Z,36.80
2022-08-25T10:34:51.410Z,35.80
2022-08-25T10:37:32.929Z,36.90
2022-08-25T10:40:11.122Z,35.60
2022-08-25T10:42:46.508Z,35.60
2022-08-25T10:45:34.420Z,35.90
2022-08-25T10:48:21.062Z,35.30
2022-08-25T10:50:57.161Z,35.40
2022-08-25T10:53:30.235Z,37.00
2022-08-25T10:56:07.451Z,37.80
2022-08-25T10:58:51.011Z,37.40
2022-08-25T11:01:32.931Z,35.80
2022-08-25T11:04:11.313Z,35.80
2022-08-25T11:06:45.999Z,35.50
2022-08-25T11:09:26.131Z,33.40
2022-08-25T11:12:01.711Z,34.20
2022-08-25T11:14:34.829Z,34.70
2022-08-25T11:17:07.167Z,34.60
2022-08-25T11:19:40.759Z,35.40
2022-08-25T11:22:15.581Z,35.90
2022-08-25T11:24:59.315Z,35.50
2022-08-25T11:27:34.778Z,34.80
2022-08-25T11:30:08.351Z,34.10
2022-08-25T11:32:37.725Z,34.30
2022-08-25T11:35:12.275Z,34.70
2022-08-25T11:37:46.929Z,36.10
2022-08-25T11:40:30.487Z,36.10
2022-08-25T11:43:08.110Z,37.30
2022-08-25T11:45:54.527Z,36.90
2022-08-25T11:48:36.179Z,35.40
2022-08-25T11:51:09.488Z,35.70
2022-08-25T11:53:42.137Z,36.20
2022-08-25T11:56:12.613Z,34.90
2022-08-25T11:58:43.809Z,35.30
2022-08-25T12:01:43.514Z,33.70
2022-08-25T12:04:14.768Z,33.00
2022-08-25T12:07:14.510Z,31.70
2022-08-25T12:10:13.866Z,33.80
2022-08-25T12:12:59.835Z,33.50
2022-08-25T12:15:33.213Z,34.00
2022-08-25T12:18:16.939Z,34.00
2022-08-25T12:21:16.433Z,33.20
2022-08-25T12:24:08.702Z,35.30
2022-08-25T12:26:46.167Z,36.60
2022-08-25T12:29:24.790Z,37.20
2022-08-25T12:32:07.131Z,37.30
2022-08-25T12:34:54.963Z,39.20
2022-08-25T12:37:25.201Z,38.50
2022-08-25T12:39:59.613Z,39.80
2022-08-25T12:42:33.431Z,39.20
2022-08-25T12:45:31.098Z,39.50
2022-08-25T12:48:31.492Z,39.90
2022-08-25T12:51:04.193Z,40.90
2022-08-25T12:53:36.969Z,41.50
2022-08-25T12:56:08.714Z,40.20
2022-08-25T12:59:00.475Z,42.00
2022-08-25T13:01:37.533Z,42.70
2022-08-25T13:04:23.958Z,43.00
2022-08-25T13:07:05.954Z,43.30
2022-08-25T13:10:03.519Z,43.10
2022-08-25T13:12:37.829Z,42.40
2022-08-25T13:15:06.243Z,42.40
2022-08-25T13:17:36.242Z,42.10
2022-08-25T13:20:14.200Z,42.20
2022-08-25T13:22:45.974Z,43.00
2022-08-25T13:25:23.021Z,42.80
2022-08-25T13:28:01.412Z,43.30
2022-08-25T13:30:32.163Z,43.50
2022-08-25T13:33:00.822Z,43.70
2022-08-25T13:35:36.639Z,43.70
2022-08-25T13:38:19.806Z,43.80
2022-08-25T13:40:47.843Z,44.20
2022-08-25T13:43:16.362Z,44.80
2022-08-25T13:45:46.380Z,44.00
2022-08-25T13:48:31.887Z,44.00
2022-08-25T13:51:09.862Z,44.00
2022-08-25T13:53:41.349Z,44.10
2022-08-25T13:56:12.716Z,44.60
2022-08-25T13:58:46.467Z,44.60
2022-08-25T14:01:23.581Z,44.50
2022-08-25T14:04:26.395Z,44.70
2022-08-25T14:07:14.993Z,44.50
2022-08-25T14:09:51.536Z,44.70
2022-08-25T14:12:29.744Z,45.30
2022-08-25T14:15:01.670Z,45.70
2022-08-25T14:17:38.749Z,45.20
2022-08-25T14:20:16.383Z,44.40
2022-08-25T14:22:44.260Z,45.00
2022-08-25T14:25:13.803Z,44.80
2022-08-25T14:28:03.701Z,45.20
2022-08-25T14:30:34.887Z,44.90
2022-08-25T14:33:04.451Z,44.30
2022-08-25T14:35:32.594Z,45.10
2022-08-25T14:38:09.800Z,45.00
2022-08-25T14:40:39.725Z,45.10
2022-08-25T14:43:09.625Z,44.50
2022-08-25T14:45:40.912Z,45.10
2022-08-25T14:48:10.711Z,45.40
2022-08-25T14:50:41.078Z,44.90
2022-08-25T14:53:11.170Z,45.30
2022-08-25T14:55:40.263Z,45.10
2022-08-25T14:58:09.167Z,44.70
2022-08-25T15:00:41.078Z,44.60
2022-08-25T15:03:10.226Z,45.20
2022-08-25T15:05:38.458Z,45.50
2022-08-25T15:08:21.818Z,45.50
2022-08-25T15:10:51.002Z,45.40
2022-08-25T15:13:18.829Z,45.20
2022-08-25T15:15:52.963Z,45.00
2022-08-25T15:18:21.831Z,45.00
2022-08-25T15:20:50.038Z,45.40
2022-08-25T15:23:18.350Z,45.30
2022-08-25T15:25:47.576Z,45.10
2022-08-25T15:28:17.638Z,45.20
2022-08-25T15:30:49.429Z,45.60
2022-08-25T15:33:17.224Z,45.50
2022-08-25T15:35:45.081Z,45.00
2022-08-25T15:38:13.534Z,45.50
2022-08-25T15:40:41.398Z,45.90
2022-08-25T15:43:09.114Z,44.80
2022-08-25T15:45:38.857Z,45.50
2022-08-25T15:48:09.451Z,45.40
2022-08-25T15:50:38.723Z,45.20
2022-08-25T15:53:08.302Z,45.60
2022-08-25T15:55:40.030Z,45.40
2022-08-25T15:58:08.861Z,45.50
2022-08-25T16:00:38.192Z,45.50
2022-08-25T16:03:08.058Z,45.50
2022-08-25T16:05:36.662Z,45.90
2022-08-25T16:08:05.752Z,45.90
2022-08-25T16:10:38.530Z,45.50
2022-08-25T16:13:07.371Z,45.80
2022-08-25T16:15:38.523Z,45.80
2022-08-25T16:18:07.030Z,45.40
2022-08-25T16:20:36.553Z,46.20
2022-08-25T16:23:05.278Z,46.00
2022-08-25T16:25:33.283Z,45.80
2022-08-25T16:28:04.471Z,45.80
2022-08-25T16:30:32.151Z,46.10
2022-08-25T16:33:01.446Z,45.90
2022-08-25T16:35:31.339Z,45.80
2022-08-25T16:38:00.277Z,46.00
2022-08-25T16:40:31.752Z,45.70
2022-08-25T16:42:59.721Z,45.90
2022-08-25T16:45:27.530Z,45.90
2022-08-25T16:47:55.353Z,45.90
2022-08-25T16:50:24.950Z,45.50
2022-08-25T16:53:07.778Z,45.60
2022-08-25T16:55:46.724Z,46.00
2022-08-25T16:58:15.578Z,46.50
2022-08-25T17:00:45.055Z,46.10
2022-08-25T17:03:13.011Z,45.90
2022-08-25T17:05:43.729Z,46.60
2022-08-25T17:08:26.070Z,46.50
2022-08-25T17:10:54.526Z,46.50
2022-08-25T17:13:22.808Z,46.50
2022-08-25T17:15:52.473Z,47.20
2022-08-25T17:18:21.167Z,46.50
2022-08-25T17:20:59.618Z,46.70
2022-08-25T17:23:27.542Z,47.20
2022-08-25T17:25:55.453Z,46.90
2022-08-25T17:28:30.422Z,47.20
2022-08-25T17:30:59.741Z,47.50
2022-08-25T17:33:28.184Z,47.00
2022-08-25T17:35:58.258Z,48.20
2022-08-25T17:38:28.458Z,47.30
2022-08-25T17:40:58.849Z,47.40
2022-08-25T17:43:28.457Z,48.00
2022-08-25T17:45:57.663Z,48.80
2022-08-25T17:48:26.917Z,48.50
2022-08-25T17:50:55.232Z,48.50
2022-08-25T17:53:24.702Z,48.90
2022-08-25T17:55:59.004Z,48.40
2022-08-25T17:58:28.935Z,48.90
2022-08-25T18:00:56.775Z,48.50
2022-08-25T18:03:26.425Z,48.80
2022-08-25T18:05:55.408Z,48.70
2022-08-25T18:08:32.094Z,49.40
2022-08-25T18:11:04.522Z,49.40
2022-08-25T18:13:32.380Z,51.30
2022-08-25T18:16:00.730Z,50.40
2022-08-25T18:18:28.874Z,51.40
2022-08-25T18:20:56.669Z,51.30
2022-08-25T18:23:26.237Z,51.90
2022-08-25T18:26:00.905Z,52.60
2022-08-25T18:28:29.395Z,53.20
2022-08-25T18:30:57.657Z,53.50
2022-08-25T18:33:29.923Z,53.00
2022-08-25T18:35:58.423Z,52.90
2022-08-25T18:38:41.465Z,53.30
2022-08-25T18:41:11.585Z,53.70
2022-08-25T18:43:39.838Z,54.20
2022-08-25T18:46:08.323Z,55.00
2022-08-25T18:48:38.311Z,55.50
2022-08-25T18:51:10.562Z,55.70
2022-08-25T18:53:50.366Z,56.10
2022-08-25T18:56:18.879Z,56.70
2022-08-25T18:58:50.650Z,56.70
2022-08-25T19:01:22.781Z,57.00
2022-08-25T19:03:52.470Z,57.50
2022-08-25T19:06:20.993Z,57.70
2022-08-25T19:08:50.536Z,57.50
2022-08-25T19:11:22.332Z,57.50
2022-08-25T19:13:51.554Z,57.50
2022-08-25T19:16:32.797Z,58.10
2022-08-25T19:19:03.862Z,58.60
2022-08-25T19:21:31.944Z,58.70
2022-08-25T19:24:03.171Z,59.30
2022-08-25T19:26:34.606Z,59.40
2022-08-25T19:29:04.842Z,59.70
2022-08-25T19:31:39.311Z,60.80
2022-08-25T19:34:07.954Z,60.50
2022-08-25T19:36:35.852Z,60.80
2022-08-25T19:39:07.359Z,61.30
2022-08-25T19:41:35.449Z,61.20
2022-08-25T19:44:03.752Z,61.60
2022-08-25T19:46:35.710Z,61.10
2022-08-25T19:49:08.136Z,60.80
2022-08-25T19:51:45.848Z,62.00
2022-08-25T19:54:17.931Z,62.50
2022-08-25T19:56:54.568Z,62.50
2022-08-25T19:59:40.680Z,62.30
2022-08-25T20:02:16.429Z,62.80
2022-08-25T20:04:49.142Z,63.30
2022-08-25T20:07:19.040Z,63.40
2022-08-25T20:09:48.622Z,64.00
2022-08-25T20:12:17.581Z,64.30
2022-08-25T20:14:47.158Z,64.80
2022-08-25T20:17:24.342Z,65.00
2022-08-25T20:19:55.453Z,65.10
2022-08-25T20:22:26.234Z,65.70
2022-08-25T20:24:57.932Z,65.70
2022-08-25T20:27:30.945Z,66.20
2022-08-25T20:30:02.618Z,66.20
2022-08-25T20:32:32.378Z,66.50
2022-08-25T20:35:00.921Z,66.70
2022-08-25T20:37:28.913Z,66.70
2022-08-25T20:39:58.034Z,67.30
2022-08-25T20:42:25.810Z,67.50
2022-08-25T20:44:54.527Z,67.70
2022-08-25T20:47:22.545Z,68.10
2022-08-25T20:49:50.485Z,68.50
2022-08-25T20:52:19.255Z,68.70
2022-08-25T20:54:49.610Z,69.20
2022-08-25T20:57:25.809Z,69.10
2022-08-25T20:59:54.879Z,69.50
2022-08-25T21:02:24.166Z,69.60
2022-08-25T21:04:54.702Z,70.00
2022-08-25T21:07:25.208Z,70.60
2022-08-25T21:09:53.792Z,71.40
2022-08-25T21:12:23.732Z,71.80
2022-08-25T21:14:51.742Z,71.50
2022-08-25T21:17:20.462Z,71.60
2022-08-25T21:22:23.826Z,71.50
2022-08-25T21:24:52.235Z,71.80
2022-08-25T21:27:21.723Z,71.80
2022-08-25T21:29:54.838Z,71.80
2022-08-25T21:32:23.831Z,71.90
2022-08-25T21:34:53.405Z,71.90
2022-08-25T21:37:21.582Z,72.00
2022-08-25T21:39:49.377Z,72.40
2022-08-25T21:42:17.218Z,72.40
2022-08-25T21:44:46.211Z,72.90
2022-08-25T21:47:13.931Z,72.90
2022-08-25T21:49:43.530Z,72.70
2022-08-25T21:52:11.372Z,72.40
2022-08-25T21:54:39.227Z,72.70
2022-08-25T21:57:07.826Z,72.80
2022-08-25T21:59:40.235Z,72.60
2022-08-25T22:02:11.550Z,72.90
2022-08-25T22:04:39.940Z,72.70
2022-08-25T22:07:08.278Z,72.60
2022-08-25T22:09:36.503Z,72.50
2022-08-25T22:12:05.566Z,72.60
2022-08-25T22:14:33.600Z,72.90
2022-08-25T22:17:02.372Z,73.10
2022-08-25T22:19:33.247Z,73.60
2022-08-25T22:22:02.226Z,73.90
2022-08-25T22:24:30.070Z,74.00
2022-08-25T22:26:58.428Z,74.00
2022-08-25T22:29:26.471Z,74.20
2022-08-25T22:31:57.686Z,74.40
2022-08-25T22:34:30.230Z,74.70
2022-08-25T22:37:01.331Z,75.00
2022-08-25T22:39:29.610Z,75.00
2022-08-25T22:41:58.415Z,75.10
2022-08-25T22:44:27.113Z,75.30
2022-08-25T22:46:54.830Z,75.20
2022-08-25T22:49:22.515Z,74.90
2022-08-25T22:51:50.908Z,75.00
2022-08-25T22:54:20.057Z,75.00
2022-08-25T22:56:47.791Z,75.00
2022-08-25T22:59:16.013Z,75.20
2022-08-25T23:01:45.132Z,75.50
2022-08-25T23:04:14.467Z,75.70
2022-08-25T23:06:42.821Z,76.20
2022-08-25T23:09:11.714Z,76.50
2022-08-25T23:11:41.040Z,76.80
2022-08-25T23:14:11.059Z,77.20
2022-08-25T23:16:39.749Z,77.50
2022-08-25T23:19:10.219Z,77.70
2022-08-25T23:21:52.026Z,78.00
2022-08-25T23:24:29.335Z,78.00
2022-08-25T23:27:01.646Z,77.90
2022-08-25T23:29:30.962Z,77.90
2022-08-25T23:31:59.602Z,78.20
2022-08-25T23:34:28.608Z,78.20
2022-08-25T23:36:57.070Z,78.20
2022-08-25T23:39:24.929Z,78.30
2022-08-25T23:41:52.972Z,78.10
2022-08-25T23:44:23.316Z,78.00
2022-08-25T23:46:54.022Z,77.80
2022-08-25T23:49:24.687Z,77.50
2022-08-25T23:51:54.926Z,77.60
2022-08-25T23:54:23.016Z,77.40
2022-08-25T23:56:59.250Z,77.40
2022-08-25T23:59:28.238Z,77.80
